sensor_id;sensor_type;location;lat;lon;timestamp;temperature;humidity
5617;DHT22;2830;50.656;7.568;2023-03-23T00:01:04;10.40;99.90
5617;DHT22;2830;50.656;7.568;2023-03-23T00:03:31;10.40;99.90
5617;DHT22;2830;50.656;7.568;2023-03-23T00:06:00;10.50;99.90
5617;DHT22;2830;50.656;7.568;2023-03-23T00:08:33;10.60;99.90
5617;DHT22;2830;50.656;7.568;2023-03-23T00:11:05;10.70;99.90
5617;DHT22;2830;50.656;7.568;2023-03-23T00:13:31;10.70;99.90
5617;DHT22;2830;50.656;7.568;2023-03-23T00:15:58;10.80;99.90
5617;DHT22;2830;50.656;7.568;2023-03-23T00:18:24;10.90;99.90
5617;DHT22;2830;50.656;7.568;2023-03-23T00:20:53;11.00;99.60
5617;DHT22;2830;50.656;7.568;2023-03-23T00:23:20;11.00;99.80
5617;DHT22;2830;50.656;7.568;2023-03-23T00:25:53;11.10;99.40
5617;DHT22;2830;50.656;7.568;2023-03-23T00:28:22;11.20;98.20
5617;DHT22;2830;50.656;7.568;2023-03-23T00:31:00;11.30;98.00
5617;DHT22;2830;50.656;7.568;2023-03-23T00:33:28;11.30;98.10
5617;DHT22;2830;50.656;7.568;2023-03-23T00:35:55;11.40;97.80
5617;DHT22;2830;50.656;7.568;2023-03-23T00:38:22;11.40;97.50
5617;DHT22;2830;50.656;7.568;2023-03-23T00:40:49;11.50;97.20
5617;DHT22;2830;50.656;7.568;2023-03-23T00:43:19;11.50;96.20
5617;DHT22;2830;50.656;7.568;2023-03-23T00:45:45;11.60;96.50
5617;DHT22;2830;50.656;7.568;2023-03-23T00:48:22;11.70;96.80
5617;DHT22;2830;50.656;7.568;2023-03-23T00:50:49;11.60;96.60
5617;DHT22;2830;50.656;7.568;2023-03-23T00:53:17;11.60;97.00
5617;DHT22;2830;50.656;7.568;2023-03-23T00:55:44;11.70;96.60
5617;DHT22;2830;50.656;7.568;2023-03-23T00:58:11;11.80;96.20
5617;DHT22;2830;50.656;7.568;2023-03-23T01:00:37;11.70;96.50
5617;DHT22;2830;50.656;7.568;2023-03-23T01:03:04;11.70;96.30
5617;DHT22;2830;50.656;7.568;2023-03-23T01:05:34;11.80;96.10
5617;DHT22;2830;50.656;7.568;2023-03-23T01:08:00;11.70;96.60
5617;DHT22;2830;50.656;7.568;2023-03-23T01:10:27;11.70;96.30
5617;DHT22;2830;50.656;7.568;2023-03-23T01:12:54;11.70;97.00
5617;DHT22;2830;50.656;7.568;2023-03-23T01:15:20;11.70;96.40
5617;DHT22;2830;50.656;7.568;2023-03-23T01:17:47;11.70;96.20
5617;DHT22;2830;50.656;7.568;2023-03-23T01:20:14;11.70;95.90
5617;DHT22;2830;50.656;7.568;2023-03-23T01:22:41;11.60;96.00
5617;DHT22;2830;50.656;7.568;2023-03-23T01:25:09;11.60;96.60
5617;DHT22;2830;50.656;7.568;2023-03-23T01:27:35;11.60;97.50
5617;DHT22;2830;50.656;7.568;2023-03-23T01:30:01;11.50;97.90
5617;DHT22;2830;50.656;7.568;2023-03-23T01:32:27;11.30;99.00
5617;DHT22;2830;50.656;7.568;2023-03-23T01:34:52;11.20;99.40
5617;DHT22;2830;50.656;7.568;2023-03-23T01:37:18;11.10;99.60
5617;DHT22;2830;50.656;7.568;2023-03-23T01:39:45;11.00;99.90
5617;DHT22;2830;50.656;7.568;2023-03-23T01:42:11;10.90;99.90
5617;DHT22;2830;50.656;7.568;2023-03-23T01:47:03;10.70;99.90
5617;DHT22;2830;50.656;7.568;2023-03-23T01:49:44;10.60;99.90
5617;DHT22;2830;50.656;7.568;2023-03-23T01:52:15;10.60;99.90
5617;DHT22;2830;50.656;7.568;2023-03-23T01:54:45;10.50;99.90
5617;DHT22;2830;50.656;7.568;2023-03-23T01:57:15;10.40;99.90
5617;DHT22;2830;50.656;7.568;2023-03-23T01:59:43;10.40;99.90
5617;DHT22;2830;50.656;7.568;2023-03-23T02:02:11;10.30;99.90
5617;DHT22;2830;50.656;7.568;2023-03-23T02:04:39;10.30;99.90
5617;DHT22;2830;50.656;7.568;2023-03-23T02:07:08;10.30;99.90
5617;DHT22;2830;50.656;7.568;2023-03-23T02:09:34;10.20;99.90
5617;DHT22;2830;50.656;7.568;2023-03-23T02:12:00;10.20;99.90
5617;DHT22;2830;50.656;7.568;2023-03-23T02:14:27;10.20;99.90
5617;DHT22;2830;50.656;7.568;2023-03-23T02:17:18;10.20;99.90
5617;DHT22;2830;50.656;7.568;2023-03-23T02:32:08;10.10;99.90
5617;DHT22;2830;50.656;7.568;2023-03-23T02:37:18;10.00;99.90
5617;DHT22;2830;50.656;7.568;2023-03-23T02:40:09;10.00;99.90
5617;DHT22;2830;50.656;7.568;2023-03-23T02:42:39;10.00;99.90
5617;DHT22;2830;50.656;7.568;2023-03-23T02:45:08;10.00;99.90
5617;DHT22;2830;50.656;7.568;2023-03-23T02:47:37;9.90;99.90
5617;DHT22;2830;50.656;7.568;2023-03-23T02:50:06;9.90;99.90
5617;DHT22;2830;50.656;7.568;2023-03-23T02:52:34;9.90;99.90
5617;DHT22;2830;50.656;7.568;2023-03-23T02:55:02;9.80;99.90
5617;DHT22;2830;50.656;7.568;2023-03-23T02:57:30;9.80;99.90
5617;DHT22;2830;50.656;7.568;2023-03-23T02:59:56;9.80;99.90
5617;DHT22;2830;50.656;7.568;2023-03-23T03:02:26;9.80;99.90
5617;DHT22;2830;50.656;7.568;2023-03-23T03:13:38;9.80;99.90
5617;DHT22;2830;50.656;7.568;2023-03-23T03:17:26;9.80;99.90
5617;DHT22;2830;50.656;7.568;2023-03-23T03:19:29;9.80;99.90
5617;DHT22;2830;50.656;7.568;2023-03-23T03:21:58;9.80;99.90
5617;DHT22;2830;50.656;7.568;2023-03-23T03:24:28;9.70;99.90
5617;DHT22;2830;50.656;7.568;2023-03-23T03:26:56;9.70;99.90
5617;DHT22;2830;50.656;7.568;2023-03-23T03:29:30;9.70;99.90
5617;DHT22;2830;50.656;7.568;2023-03-23T03:31:58;9.70;99.90
5617;DHT22;2830;50.656;7.568;2023-03-23T03:34:25;9.70;99.90
5617;DHT22;2830;50.656;7.568;2023-03-23T03:36:53;9.60;99.90
5617;DHT22;2830;50.656;7.568;2023-03-23T03:39:20;9.60;99.90
5617;DHT22;2830;50.656;7.568;2023-03-23T03:41:48;9.60;99.90
5617;DHT22;2830;50.656;7.568;2023-03-23T03:44:14;9.60;99.90
5617;DHT22;2830;50.656;7.568;2023-03-23T03:46:40;9.60;99.90
5617;DHT22;2830;50.656;7.568;2023-03-23T03:49:08;9.60;99.90
5617;DHT22;2830;50.656;7.568;2023-03-23T03:51:35;9.50;99.90
5617;DHT22;2830;50.656;7.568;2023-03-23T03:54:01;9.60;99.90
5617;DHT22;2830;50.656;7.568;2023-03-23T03:56:27;9.50;99.90
5617;DHT22;2830;50.656;7.568;2023-03-23T03:58:53;9.50;99.90
5617;DHT22;2830;50.656;7.568;2023-03-23T04:01:20;9.50;99.90
5617;DHT22;2830;50.656;7.568;2023-03-23T04:03:50;9.50;99.90
5617;DHT22;2830;50.656;7.568;2023-03-23T04:06:17;9.50;99.90
5617;DHT22;2830;50.656;7.568;2023-03-23T04:08:44;9.50;99.90
5617;DHT22;2830;50.656;7.568;2023-03-23T04:11:13;9.60;99.90
5617;DHT22;2830;50.656;7.568;2023-03-23T04:13:39;9.60;99.90
5617;DHT22;2830;50.656;7.568;2023-03-23T04:16:05;9.60;99.90
5617;DHT22;2830;50.656;7.568;2023-03-23T04:18:32;9.60;99.90
5617;DHT22;2830;50.656;7.568;2023-03-23T04:20:58;9.60;99.90
5617;DHT22;2830;50.656;7.568;2023-03-23T04:23:27;9.60;99.90
5617;DHT22;2830;50.656;7.568;2023-03-23T04:25:53;9.60;99.90
5617;DHT22;2830;50.656;7.568;2023-03-23T04:28:22;9.60;99.90
5617;DHT22;2830;50.656;7.568;2023-03-23T04:30:50;9.70;99.90
5617;DHT22;2830;50.656;7.568;2023-03-23T04:33:21;9.70;99.90
5617;DHT22;2830;50.656;7.568;2023-03-23T04:35:48;9.70;99.90
5617;DHT22;2830;50.656;7.568;2023-03-23T04:38:17;9.70;99.90
5617;DHT22;2830;50.656;7.568;2023-03-23T04:40:47;9.80;99.90
5617;DHT22;2830;50.656;7.568;2023-03-23T04:43:17;9.70;99.90
5617;DHT22;2830;50.656;7.568;2023-03-23T04:45:57;9.70;99.90
5617;DHT22;2830;50.656;7.568;2023-03-23T04:48:27;9.70;99.90
5617;DHT22;2830;50.656;7.568;2023-03-23T04:50:53;9.60;99.90
5617;DHT22;2830;50.656;7.568;2023-03-23T04:53:19;9.70;99.90
5617;DHT22;2830;50.656;7.568;2023-03-23T04:55:47;9.70;99.90
5617;DHT22;2830;50.656;7.568;2023-03-23T04:58:13;9.70;99.90
5617;DHT22;2830;50.656;7.568;2023-03-23T05:00:40;9.70;99.90
5617;DHT22;2830;50.656;7.568;2023-03-23T05:03:10;9.70;99.90
5617;DHT22;2830;50.656;7.568;2023-03-23T05:05:36;9.70;99.90
5617;DHT22;2830;50.656;7.568;2023-03-23T05:08:03;9.70;99.90
5617;DHT22;2830;50.656;7.568;2023-03-23T05:10:28;9.70;99.90
5617;DHT22;2830;50.656;7.568;2023-03-23T05:12:54;9.70;99.90
5617;DHT22;2830;50.656;7.568;2023-03-23T05:15:20;9.70;99.90
5617;DHT22;2830;50.656;7.568;2023-03-23T05:17:46;9.70;99.90
5617;DHT22;2830;50.656;7.568;2023-03-23T05:20:15;9.70;99.90
5617;DHT22;2830;50.656;7.568;2023-03-23T05:22:47;9.70;99.90
5617;DHT22;2830;50.656;7.568;2023-03-23T05:25:16;9.80;99.90
5617;DHT22;2830;50.656;7.568;2023-03-23T05:27:46;9.80;99.90
5617;DHT22;2830;50.656;7.568;2023-03-23T05:30:20;9.80;99.90
5617;DHT22;2830;50.656;7.568;2023-03-23T05:32:48;9.80;99.90
5617;DHT22;2830;50.656;7.568;2023-03-23T05:35:18;9.80;99.90
5617;DHT22;2830;50.656;7.568;2023-03-23T05:37:44;9.80;99.90
5617;DHT22;2830;50.656;7.568;2023-03-23T05:40:12;9.80;99.90
5617;DHT22;2830;50.656;7.568;2023-03-23T05:42:40;9.80;99.90
5617;DHT22;2830;50.656;7.568;2023-03-23T05:45:08;9.90;99.90
5617;DHT22;2830;50.656;7.568;2023-03-23T05:47:34;9.80;99.90
5617;DHT22;2830;50.656;7.568;2023-03-23T05:50:01;9.80;99.90
5617;DHT22;2830;50.656;7.568;2023-03-23T05:52:28;9.90;99.90
5617;DHT22;2830;50.656;7.568;2023-03-23T05:54:53;9.90;99.90
5617;DHT22;2830;50.656;7.568;2023-03-23T05:57:19;9.90;99.90
5617;DHT22;2830;50.656;7.568;2023-03-23T05:59:48;10.00;99.90
5617;DHT22;2830;50.656;7.568;2023-03-23T06:02:14;10.10;99.90
5617;DHT22;2830;50.656;7.568;2023-03-23T06:04:40;10.10;99.90
5617;DHT22;2830;50.656;7.568;2023-03-23T06:07:08;10.10;99.90
5617;DHT22;2830;50.656;7.568;2023-03-23T06:09:38;10.10;99.90
5617;DHT22;2830;50.656;7.568;2023-03-23T06:12:04;10.10;99.90
5617;DHT22;2830;50.656;7.568;2023-03-23T06:14:30;10.10;99.90
5617;DHT22;2830;50.656;7.568;2023-03-23T06:16:57;10.10;99.90
5617;DHT22;2830;50.656;7.568;2023-03-23T06:19:22;10.20;99.90
5617;DHT22;2830;50.656;7.568;2023-03-23T06:21:48;10.20;99.90
5617;DHT22;2830;50.656;7.568;2023-03-23T06:24:14;10.20;99.90
5617;DHT22;2830;50.656;7.568;2023-03-23T06:26:40;10.20;99.90
5617;DHT22;2830;50.656;7.568;2023-03-23T06:29:07;10.30;99.90
5617;DHT22;2830;50.656;7.568;2023-03-23T06:31:46;10.30;99.90
5617;DHT22;2830;50.656;7.568;2023-03-23T06:34:13;10.30;99.90
5617;DHT22;2830;50.656;7.568;2023-03-23T06:36:40;10.30;99.90
5617;DHT22;2830;50.656;7.568;2023-03-23T06:39:06;10.30;99.90
5617;DHT22;2830;50.656;7.568;2023-03-23T06:41:32;10.30;99.90
5617;DHT22;2830;50.656;7.568;2023-03-23T06:43:59;10.30;99.90
5617;DHT22;2830;50.656;7.568;2023-03-23T06:46:25;10.30;99.90
5617;DHT22;2830;50.656;7.568;2023-03-23T06:48:51;10.30;99.90
5617;DHT22;2830;50.656;7.568;2023-03-23T06:51:18;10.40;99.90
5617;DHT22;2830;50.656;7.568;2023-03-23T06:53:44;10.40;99.90
5617;DHT22;2830;50.656;7.568;2023-03-23T06:56:10;10.50;99.90
5617;DHT22;2830;50.656;7.568;2023-03-23T06:58:37;10.50;99.90
5617;DHT22;2830;50.656;7.568;2023-03-23T07:01:03;10.50;99.90
5617;DHT22;2830;50.656;7.568;2023-03-23T07:03:29;10.60;99.90
5617;DHT22;2830;50.656;7.568;2023-03-23T07:05:57;10.60;99.90
5617;DHT22;2830;50.656;7.568;2023-03-23T07:08:24;10.70;99.90
5617;DHT22;2830;50.656;7.568;2023-03-23T07:10:54;10.70;99.90
5617;DHT22;2830;50.656;7.568;2023-03-23T07:13:21;10.70;99.90
5617;DHT22;2830;50.656;7.568;2023-03-23T07:15:47;10.70;99.90
5617;DHT22;2830;50.656;7.568;2023-03-23T07:18:14;10.80;99.90
5617;DHT22;2830;50.656;7.568;2023-03-23T07:20:40;10.80;99.90
5617;DHT22;2830;50.656;7.568;2023-03-23T07:23:06;10.80;99.90
5617;DHT22;2830;50.656;7.568;2023-03-23T07:25:34;10.80;99.90
5617;DHT22;2830;50.656;7.568;2023-03-23T07:28:03;10.80;99.90
5617;DHT22;2830;50.656;7.568;2023-03-23T07:30:33;10.80;99.90
5617;DHT22;2830;50.656;7.568;2023-03-23T07:32:59;10.80;99.90
5617;DHT22;2830;50.656;7.568;2023-03-23T07:35:25;10.80;99.90
5617;DHT22;2830;50.656;7.568;2023-03-23T07:37:51;10.80;99.90
5617;DHT22;2830;50.656;7.568;2023-03-23T07:40:18;10.80;99.90
5617;DHT22;2830;50.656;7.568;2023-03-23T07:42:46;10.80;99.90
5617;DHT22;2830;50.656;7.568;2023-03-23T07:45:15;10.80;99.90
5617;DHT22;2830;50.656;7.568;2023-03-23T07:47:41;10.80;99.90
5617;DHT22;2830;50.656;7.568;2023-03-23T07:50:08;10.80;99.90
5617;DHT22;2830;50.656;7.568;2023-03-23T07:52:35;10.80;99.90
5617;DHT22;2830;50.656;7.568;2023-03-23T07:55:03;10.80;99.90
5617;DHT22;2830;50.656;7.568;2023-03-23T07:57:30;10.90;99.90
5617;DHT22;2830;50.656;7.568;2023-03-23T07:59:56;10.90;99.90
5617;DHT22;2830;50.656;7.568;2023-03-23T08:02:23;11.00;99.90
5617;DHT22;2830;50.656;7.568;2023-03-23T08:04:49;11.10;99.90
5617;DHT22;2830;50.656;7.568;2023-03-23T08:07:17;11.20;99.90
5617;DHT22;2830;50.656;7.568;2023-03-23T08:09:45;11.20;99.90
5617;DHT22;2830;50.656;7.568;2023-03-23T08:12:12;11.30;99.90
5617;DHT22;2830;50.656;7.568;2023-03-23T08:14:38;11.30;99.90
5617;DHT22;2830;50.656;7.568;2023-03-23T08:17:04;11.30;99.90
5617;DHT22;2830;50.656;7.568;2023-03-23T08:19:30;11.30;99.90
5617;DHT22;2830;50.656;7.568;2023-03-23T08:21:56;11.30;99.90
5617;DHT22;2830;50.656;7.568;2023-03-23T08:24:22;11.30;99.90
5617;DHT22;2830;50.656;7.568;2023-03-23T08:26:49;11.40;99.90
5617;DHT22;2830;50.656;7.568;2023-03-23T08:29:14;11.40;99.90
5617;DHT22;2830;50.656;7.568;2023-03-23T08:31:41;11.50;99.90
5617;DHT22;2830;50.656;7.568;2023-03-23T08:34:07;11.50;99.90
5617;DHT22;2830;50.656;7.568;2023-03-23T08:36:34;11.60;99.90
5617;DHT22;2830;50.656;7.568;2023-03-23T08:39:00;11.60;99.90
5617;DHT22;2830;50.656;7.568;2023-03-23T08:41:26;11.60;99.90
5617;DHT22;2830;50.656;7.568;2023-03-23T08:43:52;11.60;99.90
5617;DHT22;2830;50.656;7.568;2023-03-23T08:46:18;11.60;99.90
5617;DHT22;2830;50.656;7.568;2023-03-23T08:48:45;11.70;99.90
5617;DHT22;2830;50.656;7.568;2023-03-23T08:51:11;11.70;99.90
5617;DHT22;2830;50.656;7.568;2023-03-23T08:53:38;11.70;99.40
5617;DHT22;2830;50.656;7.568;2023-03-23T08:56:09;11.70;98.20
5617;DHT22;2830;50.656;7.568;2023-03-23T08:58:37;11.70;98.50
5617;DHT22;2830;50.656;7.568;2023-03-23T09:01:03;11.70;97.80
5617;DHT22;2830;50.656;7.568;2023-03-23T09:03:30;11.70;97.80
5617;DHT22;2830;50.656;7.568;2023-03-23T09:06:00;11.70;97.70
5617;DHT22;2830;50.656;7.568;2023-03-23T09:08:28;11.70;97.70
5617;DHT22;2830;50.656;7.568;2023-03-23T09:10:58;11.70;98.40
5617;DHT22;2830;50.656;7.568;2023-03-23T09:13:24;11.70;99.00
5617;DHT22;2830;50.656;7.568;2023-03-23T09:15:50;11.70;99.30
5617;DHT22;2830;50.656;7.568;2023-03-23T09:18:18;11.70;99.50
5617;DHT22;2830;50.656;7.568;2023-03-23T09:20:44;11.70;99.90
5617;DHT22;2830;50.656;7.568;2023-03-23T09:23:10;11.70;99.80
5617;DHT22;2830;50.656;7.568;2023-03-23T09:25:39;11.80;99.90
5617;DHT22;2830;50.656;7.568;2023-03-23T09:28:05;11.80;99.90
5617;DHT22;2830;50.656;7.568;2023-03-23T09:30:33;11.90;99.90
5617;DHT22;2830;50.656;7.568;2023-03-23T09:33:02;12.00;99.60
5617;DHT22;2830;50.656;7.568;2023-03-23T09:35:29;12.00;99.10
5617;DHT22;2830;50.656;7.568;2023-03-23T09:37:55;12.10;98.80
5617;DHT22;2830;50.656;7.568;2023-03-23T09:40:24;12.10;98.70
5617;DHT22;2830;50.656;7.568;2023-03-23T09:45:26;12.10;97.40
5617;DHT22;2830;50.656;7.568;2023-03-23T09:50:44;12.20;95.70
5617;DHT22;2830;50.656;7.568;2023-03-23T09:53:22;12.30;96.80
5617;DHT22;2830;50.656;7.568;2023-03-23T09:55:49;12.40;94.90
5617;DHT22;2830;50.656;7.568;2023-03-23T09:58:33;12.50;93.90
5617;DHT22;2830;50.656;7.568;2023-03-23T10:01:24;12.50;94.30
5617;DHT22;2830;50.656;7.568;2023-03-23T10:04:43;12.60;93.30
5617;DHT22;2830;50.656;7.568;2023-03-23T10:06:42;12.50;94.00
5617;DHT22;2830;50.656;7.568;2023-03-23T10:09:15;12.60;92.60
5617;DHT22;2830;50.656;7.568;2023-03-23T10:14:57;12.70;92.40
5617;DHT22;2830;50.656;7.568;2023-03-23T10:17:42;12.80;92.40
5617;DHT22;2830;50.656;7.568;2023-03-23T10:23:08;12.80;92.40
5617;DHT22;2830;50.656;7.568;2023-03-23T10:25:37;12.80;92.30
5617;DHT22;2830;50.656;7.568;2023-03-23T10:28:13;12.90;92.70
5617;DHT22;2830;50.656;7.568;2023-03-23T10:30:49;12.80;92.70
5617;DHT22;2830;50.656;7.568;2023-03-23T10:33:40;12.80;92.10
5617;DHT22;2830;50.656;7.568;2023-03-23T10:39:10;12.80;92.20
5617;DHT22;2830;50.656;7.568;2023-03-23T10:41:38;12.80;93.20
5617;DHT22;2830;50.656;7.568;2023-03-23T10:44:18;12.70;93.10
5617;DHT22;2830;50.656;7.568;2023-03-23T10:46:55;12.70;93.10
5617;DHT22;2830;50.656;7.568;2023-03-23T10:49:36;12.70;93.30
5617;DHT22;2830;50.656;7.568;2023-03-23T10:52:19;12.70;93.70
5617;DHT22;2830;50.656;7.568;2023-03-23T10:54:57;12.60;94.40
5617;DHT22;2830;50.656;7.568;2023-03-23T10:57:30;12.60;94.90
5617;DHT22;2830;50.656;7.568;2023-03-23T11:00:21;12.60;95.30
5617;DHT22;2830;50.656;7.568;2023-03-23T11:03:25;12.50;95.10
5617;DHT22;2830;50.656;7.568;2023-03-23T11:06:01;12.50;95.30
5617;DHT22;2830;50.656;7.568;2023-03-23T11:08:31;12.60;95.20
5617;DHT22;2830;50.656;7.568;2023-03-23T11:11:10;12.60;95.10
5617;DHT22;2830;50.656;7.568;2023-03-23T11:13:42;12.70;94.90
5617;DHT22;2830;50.656;7.568;2023-03-23T11:16:10;12.80;95.20
5617;DHT22;2830;50.656;7.568;2023-03-23T11:18:47;12.80;94.80
5617;DHT22;2830;50.656;7.568;2023-03-23T11:21:13;12.80;95.20
5617;DHT22;2830;50.656;7.568;2023-03-23T11:23:42;12.90;94.90
5617;DHT22;2830;50.656;7.568;2023-03-23T11:26:25;12.90;94.90
5617;DHT22;2830;50.656;7.568;2023-03-23T11:29:12;12.90;94.80
5617;DHT22;2830;50.656;7.568;2023-03-23T11:31:47;12.90;94.70
5617;DHT22;2830;50.656;7.568;2023-03-23T11:34:53;13.10;94.30
5617;DHT22;2830;50.656;7.568;2023-03-23T11:37:21;13.30;94.40
5617;DHT22;2830;50.656;7.568;2023-03-23T11:39:52;13.40;93.80
5617;DHT22;2830;50.656;7.568;2023-03-23T11:42:22;13.50;93.50
5617;DHT22;2830;50.656;7.568;2023-03-23T11:44:48;13.60;92.60
5617;DHT22;2830;50.656;7.568;2023-03-23T11:47:38;13.70;92.70
5617;DHT22;2830;50.656;7.568;2023-03-23T11:50:30;13.90;92.40
5617;DHT22;2830;50.656;7.568;2023-03-23T11:58:38;13.90;92.40
5617;DHT22;2830;50.656;7.568;2023-03-23T12:04:13;13.80;91.40
5617;DHT22;2830;50.656;7.568;2023-03-23T12:06:54;13.70;90.80
5617;DHT22;2830;50.656;7.568;2023-03-23T12:15:05;13.80;91.00
5617;DHT22;2830;50.656;7.568;2023-03-23T12:17:51;14.00;90.60
5617;DHT22;2830;50.656;7.568;2023-03-23T12:23:05;14.20;89.90
5617;DHT22;2830;50.656;7.568;2023-03-23T12:44:50;14.40;87.40
5617;DHT22;2830;50.656;7.568;2023-03-23T12:47:49;14.40;89.10
5617;DHT22;2830;50.656;7.568;2023-03-23T12:50:30;14.40;88.00
5617;DHT22;2830;50.656;7.568;2023-03-23T12:53:05;14.40;88.70
5617;DHT22;2830;50.656;7.568;2023-03-23T12:58:46;14.40;86.50
5617;DHT22;2830;50.656;7.568;2023-03-23T13:01:22;14.40;84.90
5617;DHT22;2830;50.656;7.568;2023-03-23T13:04:05;14.50;86.00
5617;DHT22;2830;50.656;7.568;2023-03-23T13:06:39;14.70;84.80
5617;DHT22;2830;50.656;7.568;2023-03-23T13:11:53;15.00;82.20
5617;DHT22;2830;50.656;7.568;2023-03-23T13:23:09;14.80;82.70
5617;DHT22;2830;50.656;7.568;2023-03-23T13:28:03;14.50;83.80
5617;DHT22;2830;50.656;7.568;2023-03-23T13:30:30;14.40;84.50
5617;DHT22;2830;50.656;7.568;2023-03-23T13:33:04;14.30;86.20
5617;DHT22;2830;50.656;7.568;2023-03-23T13:35:38;14.30;86.90
5617;DHT22;2830;50.656;7.568;2023-03-23T13:38:23;14.20;83.80
5617;DHT22;2830;50.656;7.568;2023-03-23T13:40:51;14.20;86.00
5617;DHT22;2830;50.656;7.568;2023-03-23T13:43:33;14.30;86.60
5617;DHT22;2830;50.656;7.568;2023-03-23T13:48:41;14.50;84.20
5617;DHT22;2830;50.656;7.568;2023-03-23T13:54:39;14.50;83.20
5617;DHT22;2830;50.656;7.568;2023-03-23T13:59:57;14.80;82.60
5617;DHT22;2830;50.656;7.568;2023-03-23T14:02:40;14.90;84.20
5617;DHT22;2830;50.656;7.568;2023-03-23T14:05:34;14.90;82.50
5617;DHT22;2830;50.656;7.568;2023-03-23T14:08:09;14.90;82.70
5617;DHT22;2830;50.656;7.568;2023-03-23T14:10:42;14.70;82.60
5617;DHT22;2830;50.656;7.568;2023-03-23T14:13:59;14.60;84.00
5617;DHT22;2830;50.656;7.568;2023-03-23T14:18:42;14.50;83.50
5617;DHT22;2830;50.656;7.568;2023-03-23T14:21:21;14.40;86.80
5617;DHT22;2830;50.656;7.568;2023-03-23T14:23:47;14.40;85.70
5617;DHT22;2830;50.656;7.568;2023-03-23T14:26:19;14.40;86.20
5617;DHT22;2830;50.656;7.568;2023-03-23T14:28:49;14.50;87.60
5617;DHT22;2830;50.656;7.568;2023-03-23T14:31:23;14.60;85.40
5617;DHT22;2830;50.656;7.568;2023-03-23T14:33:51;14.60;85.10
5617;DHT22;2830;50.656;7.568;2023-03-23T14:36:26;14.70;85.10
5617;DHT22;2830;50.656;7.568;2023-03-23T14:39:07;14.90;84.40
5617;DHT22;2830;50.656;7.568;2023-03-23T14:41:35;15.10;84.10
5617;DHT22;2830;50.656;7.568;2023-03-23T14:44:03;15.00;83.90
5617;DHT22;2830;50.656;7.568;2023-03-23T14:46:31;15.10;83.70
5617;DHT22;2830;50.656;7.568;2023-03-23T14:49:00;15.10;82.00
5617;DHT22;2830;50.656;7.568;2023-03-23T14:51:27;15.10;82.70
5617;DHT22;2830;50.656;7.568;2023-03-23T14:53:54;15.00;82.00
5617;DHT22;2830;50.656;7.568;2023-03-23T14:56:21;15.00;82.20
5617;DHT22;2830;50.656;7.568;2023-03-23T14:58:50;14.90;84.60
5617;DHT22;2830;50.656;7.568;2023-03-23T15:01:37;14.90;83.20
5617;DHT22;2830;50.656;7.568;2023-03-23T15:06:41;14.80;83.10
5617;DHT22;2830;50.656;7.568;2023-03-23T15:09:15;14.70;83.90
5617;DHT22;2830;50.656;7.568;2023-03-23T15:11:49;14.80;85.20
5617;DHT22;2830;50.656;7.568;2023-03-23T15:14:22;14.80;84.00
5617;DHT22;2830;50.656;7.568;2023-03-23T15:16:50;14.80;84.50
5617;DHT22;2830;50.656;7.568;2023-03-23T15:19:32;14.80;85.70
5617;DHT22;2830;50.656;7.568;2023-03-23T15:22:29;14.80;85.90
5617;DHT22;2830;50.656;7.568;2023-03-23T15:25:20;14.90;85.40
5617;DHT22;2830;50.656;7.568;2023-03-23T15:27:51;14.90;86.10
5617;DHT22;2830;50.656;7.568;2023-03-23T15:32:55;14.80;88.10
5617;DHT22;2830;50.656;7.568;2023-03-23T15:35:25;14.60;86.80
5617;DHT22;2830;50.656;7.568;2023-03-23T15:37:57;14.50;88.10
5617;DHT22;2830;50.656;7.568;2023-03-23T15:40:25;14.50;89.00
5617;DHT22;2830;50.656;7.568;2023-03-23T15:43:16;14.50;88.20
5617;DHT22;2830;50.656;7.568;2023-03-23T15:48:47;14.30;89.40
5617;DHT22;2830;50.656;7.568;2023-03-23T15:51:15;14.30;89.20
5617;DHT22;2830;50.656;7.568;2023-03-23T15:53:41;14.20;88.90
5617;DHT22;2830;50.656;7.568;2023-03-23T15:56:10;14.10;89.40
5617;DHT22;2830;50.656;7.568;2023-03-23T15:58:37;14.10;89.10
5617;DHT22;2830;50.656;7.568;2023-03-23T16:01:26;14.10;88.40
5617;DHT22;2830;50.656;7.568;2023-03-23T16:04:05;14.10;88.30
5617;DHT22;2830;50.656;7.568;2023-03-23T16:06:34;14.10;88.80
5617;DHT22;2830;50.656;7.568;2023-03-23T16:09:03;14.10;87.90
5617;DHT22;2830;50.656;7.568;2023-03-23T16:11:31;14.10;88.30
5617;DHT22;2830;50.656;7.568;2023-03-23T16:13:58;14.10;87.40
5617;DHT22;2830;50.656;7.568;2023-03-23T16:16:33;14.10;87.90
5617;DHT22;2830;50.656;7.568;2023-03-23T16:19:00;14.10;88.00
5617;DHT22;2830;50.656;7.568;2023-03-23T16:21:27;14.10;87.30
5617;DHT22;2830;50.656;7.568;2023-03-23T16:23:55;14.00;87.20
5617;DHT22;2830;50.656;7.568;2023-03-23T16:26:22;14.00;87.30
5617;DHT22;2830;50.656;7.568;2023-03-23T16:28:49;14.00;86.50
5617;DHT22;2830;50.656;7.568;2023-03-23T16:31:20;14.00;85.90
5617;DHT22;2830;50.656;7.568;2023-03-23T16:33:48;13.90;86.10
5617;DHT22;2830;50.656;7.568;2023-03-23T16:36:15;13.90;86.40
5617;DHT22;2830;50.656;7.568;2023-03-23T16:38:42;13.90;85.60
5617;DHT22;2830;50.656;7.568;2023-03-23T16:41:16;13.90;86.90
5617;DHT22;2830;50.656;7.568;2023-03-23T16:43:43;13.80;87.30
5617;DHT22;2830;50.656;7.568;2023-03-23T16:46:11;13.80;86.80
5617;DHT22;2830;50.656;7.568;2023-03-23T16:48:39;13.60;87.30
5617;DHT22;2830;50.656;7.568;2023-03-23T16:51:06;13.60;87.90
5617;DHT22;2830;50.656;7.568;2023-03-23T16:53:33;13.50;88.70
5617;DHT22;2830;50.656;7.568;2023-03-23T16:56:00;13.40;89.30
5617;DHT22;2830;50.656;7.568;2023-03-23T16:58:27;13.40;89.90
5617;DHT22;2830;50.656;7.568;2023-03-23T17:00:53;13.30;90.10
5617;DHT22;2830;50.656;7.568;2023-03-23T17:03:21;13.30;90.10
5617;DHT22;2830;50.656;7.568;2023-03-23T17:05:49;13.20;90.40
5617;DHT22;2830;50.656;7.568;2023-03-23T17:08:17;13.20;90.40
5617;DHT22;2830;50.656;7.568;2023-03-23T17:10:46;13.20;90.40
5617;DHT22;2830;50.656;7.568;2023-03-23T17:13:13;13.20;90.30
5617;DHT22;2830;50.656;7.568;2023-03-23T17:15:41;13.10;90.60
5617;DHT22;2830;50.656;7.568;2023-03-23T17:18:13;13.00;90.80
5617;DHT22;2830;50.656;7.568;2023-03-23T17:20:40;13.00;90.70
5617;DHT22;2830;50.656;7.568;2023-03-23T17:23:07;12.90;91.10
5617;DHT22;2830;50.656;7.568;2023-03-23T17:25:34;12.80;91.40
5617;DHT22;2830;50.656;7.568;2023-03-23T17:28:01;12.80;91.40
5617;DHT22;2830;50.656;7.568;2023-03-23T17:30:44;12.70;91.50
5617;DHT22;2830;50.656;7.568;2023-03-23T17:33:11;12.70;91.90
5617;DHT22;2830;50.656;7.568;2023-03-23T17:35:39;12.60;92.10
5617;DHT22;2830;50.656;7.568;2023-03-23T17:38:06;12.60;91.80
5617;DHT22;2830;50.656;7.568;2023-03-23T17:40:32;12.60;92.10
5617;DHT22;2830;50.656;7.568;2023-03-23T17:43:00;12.50;92.20
5617;DHT22;2830;50.656;7.568;2023-03-23T17:45:26;12.50;92.30
5617;DHT22;2830;50.656;7.568;2023-03-23T17:47:54;12.50;92.40
5617;DHT22;2830;50.656;7.568;2023-03-23T17:50:21;12.40;92.60
5617;DHT22;2830;50.656;7.568;2023-03-23T17:52:47;12.40;92.80
5617;DHT22;2830;50.656;7.568;2023-03-23T17:55:15;12.40;92.90
5617;DHT22;2830;50.656;7.568;2023-03-23T17:57:42;12.40;93.00
5617;DHT22;2830;50.656;7.568;2023-03-23T18:00:11;12.40;93.30
5617;DHT22;2830;50.656;7.568;2023-03-23T18:02:39;12.40;93.70
5617;DHT22;2830;50.656;7.568;2023-03-23T18:05:06;12.30;93.90
5617;DHT22;2830;50.656;7.568;2023-03-23T18:07:35;12.30;94.10
5617;DHT22;2830;50.656;7.568;2023-03-23T18:10:03;12.30;94.10
5617;DHT22;2830;50.656;7.568;2023-03-23T18:12:38;12.40;94.30
5617;DHT22;2830;50.656;7.568;2023-03-23T18:15:07;12.40;94.30
5617;DHT22;2830;50.656;7.568;2023-03-23T18:17:34;12.40;94.30